sensor_id;sensor_type;location;lat;lon;timestamp;temperature;humidity
16249;DHT22;8232;51.678;6.610;2022-10-19T00:01:46;8.20;1.00
16249;DHT22;8232;51.678;6.610;2022-10-19T00:04:12;8.00;1.00
16249;DHT22;8232;51.678;6.610;2022-10-19T00:06:41;8.10;1.00
16249;DHT22;8232;51.678;6.610;2022-10-19T00:09:09;8.10;1.00
16249;DHT22;8232;51.678;6.610;2022-10-19T00:11:39;8.10;1.00
16249;DHT22;8232;51.678;6.610;2022-10-19T00:14:06;8.10;1.00
16249;DHT22;8232;51.678;6.610;2022-10-19T00:16:35;8.00;1.00
16249;DHT22;8232;51.678;6.610;2022-10-19T00:19:05;8.00;1.00
16249;DHT22;8232;51.678;6.610;2022-10-19T00:21:32;8.00;1.00
16249;DHT22;8232;51.678;6.610;2022-10-19T00:24:00;7.90;1.00
16249;DHT22;8232;51.678;6.610;2022-10-19T00:26:27;8.00;1.00
16249;DHT22;8232;51.678;6.610;2022-10-19T00:28:55;7.90;1.00
16249;DHT22;8232;51.678;6.610;2022-10-19T00:31:22;7.80;1.00
16249;DHT22;8232;51.678;6.610;2022-10-19T00:33:49;7.80;1.00
16249;DHT22;8232;51.678;6.610;2022-10-19T00:36:18;7.80;1.00
16249;DHT22;8232;51.678;6.610;2022-10-19T00:38:46;7.70;1.00
16249;DHT22;8232;51.678;6.610;2022-10-19T00:41:15;7.60;1.00
16249;DHT22;8232;51.678;6.610;2022-10-19T00:43:50;7.80;1.00
16249;DHT22;8232;51.678;6.610;2022-10-19T00:46:18;7.80;1.00
16249;DHT22;8232;51.678;6.610;2022-10-19T00:48:44;7.70;1.00
16249;DHT22;8232;51.678;6.610;2022-10-19T00:51:11;7.80;1.00
16249;DHT22;8232;51.678;6.610;2022-10-19T00:53:39;7.80;1.00
16249;DHT22;8232;51.678;6.610;2022-10-19T00:56:09;7.80;1.00
16249;DHT22;8232;51.678;6.610;2022-10-19T00:58:40;7.90;1.00
16249;DHT22;8232;51.678;6.610;2022-10-19T01:01:10;7.80;1.00
16249;DHT22;8232;51.678;6.610;2022-10-19T01:03:39;7.80;1.00
16249;DHT22;8232;51.678;6.610;2022-10-19T01:06:06;7.70;1.00
16249;DHT22;8232;51.678;6.610;2022-10-19T01:08:33;7.60;1.00
16249;DHT22;8232;51.678;6.610;2022-10-19T01:11:11;7.40;1.00
16249;DHT22;8232;51.678;6.610;2022-10-19T01:13:46;7.30;1.00
16249;DHT22;8232;51.678;6.610;2022-10-19T01:16:22;7.40;1.00
16249;DHT22;8232;51.678;6.610;2022-10-19T01:18:56;7.40;1.00
16249;DHT22;8232;51.678;6.610;2022-10-19T01:21:24;7.40;1.00
16249;DHT22;8232;51.678;6.610;2022-10-19T01:27:16;7.50;1.00
16249;DHT22;8232;51.678;6.610;2022-10-19T01:30:04;7.70;1.00
16249;DHT22;8232;51.678;6.610;2022-10-19T01:32:41;7.70;1.00
16249;DHT22;8232;51.678;6.610;2022-10-19T01:35:13;7.70;1.00
16249;DHT22;8232;51.678;6.610;2022-10-19T01:37:47;7.50;1.00
16249;DHT22;8232;51.678;6.610;2022-10-19T01:40:22;7.40;1.00
16249;DHT22;8232;51.678;6.610;2022-10-19T01:42:56;7.30;1.00
16249;DHT22;8232;51.678;6.610;2022-10-19T01:45:28;7.30;1.00
16249;DHT22;8232;51.678;6.610;2022-10-19T01:48:00;7.20;1.00
16249;DHT22;8232;51.678;6.610;2022-10-19T01:50:32;7.10;1.00
16249;DHT22;8232;51.678;6.610;2022-10-19T01:53:02;7.10;1.00
16249;DHT22;8232;51.678;6.610;2022-10-19T01:55:31;7.10;1.00
16249;DHT22;8232;51.678;6.610;2022-10-19T01:58:02;7.00;1.00
16249;DHT22;8232;51.678;6.610;2022-10-19T02:00:34;6.80;1.00
16249;DHT22;8232;51.678;6.610;2022-10-19T02:03:03;6.70;1.00
16249;DHT22;8232;51.678;6.610;2022-10-19T02:05:33;6.70;1.00
16249;DHT22;8232;51.678;6.610;2022-10-19T02:08:05;6.70;1.00
16249;DHT22;8232;51.678;6.610;2022-10-19T02:10:36;6.80;1.00
16249;DHT22;8232;51.678;6.610;2022-10-19T02:13:04;6.80;1.00
16249;DHT22;8232;51.678;6.610;2022-10-19T02:15:35;7.00;1.00
16249;DHT22;8232;51.678;6.610;2022-10-19T02:18:05;7.10;1.00
16249;DHT22;8232;51.678;6.610;2022-10-19T02:20:33;7.10;1.00
16249;DHT22;8232;51.678;6.610;2022-10-19T02:23:02;7.20;1.00
16249;DHT22;8232;51.678;6.610;2022-10-19T02:25:29;7.00;1.00
16249;DHT22;8232;51.678;6.610;2022-10-19T02:27:56;7.00;1.00
16249;DHT22;8232;51.678;6.610;2022-10-19T02:30:23;6.80;1.00
16249;DHT22;8232;51.678;6.610;2022-10-19T02:32:51;6.70;1.00
16249;DHT22;8232;51.678;6.610;2022-10-19T02:35:18;6.60;1.00
16249;DHT22;8232;51.678;6.610;2022-10-19T02:37:45;6.60;1.00
16249;DHT22;8232;51.678;6.610;2022-10-19T02:40:12;6.60;1.00
16249;DHT22;8232;51.678;6.610;2022-10-19T02:42:42;6.60;1.00
16249;DHT22;8232;51.678;6.610;2022-10-19T02:45:12;6.40;1.00
16249;DHT22;8232;51.678;6.610;2022-10-19T02:47:43;6.50;1.00
16249;DHT22;8232;51.678;6.610;2022-10-19T02:50:12;6.50;1.00
16249;DHT22;8232;51.678;6.610;2022-10-19T02:52:39;6.30;1.00
16249;DHT22;8232;51.678;6.610;2022-10-19T02:55:07;6.30;1.00
16249;DHT22;8232;51.678;6.610;2022-10-19T02:57:34;6.40;1.00
16249;DHT22;8232;51.678;6.610;2022-10-19T03:00:01;6.30;1.00
16249;DHT22;8232;51.678;6.610;2022-10-19T03:02:28;6.30;1.00
16249;DHT22;8232;51.678;6.610;2022-10-19T03:04:55;6.50;1.00
16249;DHT22;8232;51.678;6.610;2022-10-19T03:07:23;6.50;1.00
16249;DHT22;8232;51.678;6.610;2022-10-19T03:09:50;6.50;1.00
16249;DHT22;8232;51.678;6.610;2022-10-19T03:12:17;6.40;1.00
16249;DHT22;8232;51.678;6.610;2022-10-19T03:14:44;6.20;1.00
16249;DHT22;8232;51.678;6.610;2022-10-19T03:17:11;6.20;1.00
16249;DHT22;8232;51.678;6.610;2022-10-19T03:19:38;6.30;1.00
16249;DHT22;8232;51.678;6.610;2022-10-19T03:22:05;6.20;1.00
16249;DHT22;8232;51.678;6.610;2022-10-19T03:24:33;6.00;1.00
16249;DHT22;8232;51.678;6.610;2022-10-19T03:27:00;6.00;1.00
16249;DHT22;8232;51.678;6.610;2022-10-19T03:29:27;6.00;1.00
16249;DHT22;8232;51.678;6.610;2022-10-19T03:31:53;6.20;1.00
16249;DHT22;8232;51.678;6.610;2022-10-19T03:34:21;6.20;1.00
16249;DHT22;8232;51.678;6.610;2022-10-19T03:36:47;6.20;1.00
16249;DHT22;8232;51.678;6.610;2022-10-19T03:39:15;6.20;1.00
16249;DHT22;8232;51.678;6.610;2022-10-19T03:41:44;6.30;1.00
16249;DHT22;8232;51.678;6.610;2022-10-19T03:44:11;5.90;1.00
16249;DHT22;8232;51.678;6.610;2022-10-19T03:46:38;5.90;1.00
16249;DHT22;8232;51.678;6.610;2022-10-19T03:49:05;5.90;1.00
16249;DHT22;8232;51.678;6.610;2022-10-19T03:51:32;5.90;1.00
16249;DHT22;8232;51.678;6.610;2022-10-19T03:54:01;6.00;1.00
16249;DHT22;8232;51.678;6.610;2022-10-19T03:56:29;5.80;1.00
16249;DHT22;8232;51.678;6.610;2022-10-19T03:58:59;5.80;1.00
16249;DHT22;8232;51.678;6.610;2022-10-19T04:01:28;6.10;1.00
16249;DHT22;8232;51.678;6.610;2022-10-19T04:03:57;6.10;1.00
16249;DHT22;8232;51.678;6.610;2022-10-19T04:06:25;6.20;1.00
16249;DHT22;8232;51.678;6.610;2022-10-19T04:08:52;6.00;1.00
16249;DHT22;8232;51.678;6.610;2022-10-19T04:11:21;5.90;1.00
16249;DHT22;8232;51.678;6.610;2022-10-19T04:13:48;5.70;1.00
16249;DHT22;8232;51.678;6.610;2022-10-19T04:16:17;5.70;1.00
16249;DHT22;8232;51.678;6.610;2022-10-19T04:18:45;5.80;1.00
16249;DHT22;8232;51.678;6.610;2022-10-19T04:21:19;5.80;1.00
16249;DHT22;8232;51.678;6.610;2022-10-19T04:23:47;5.70;1.00
16249;DHT22;8232;51.678;6.610;2022-10-19T04:26:14;5.70;1.00
16249;DHT22;8232;51.678;6.610;2022-10-19T04:28:41;5.70;1.00
16249;DHT22;8232;51.678;6.610;2022-10-19T04:31:09;5.80;1.00
16249;DHT22;8232;51.678;6.610;2022-10-19T04:33:37;5.80;1.00
16249;DHT22;8232;51.678;6.610;2022-10-19T04:36:06;5.80;1.00
16249;DHT22;8232;51.678;6.610;2022-10-19T04:38:34;5.90;1.00
16249;DHT22;8232;51.678;6.610;2022-10-19T04:41:01;6.10;1.00
16249;DHT22;8232;51.678;6.610;2022-10-19T04:43:28;6.00;1.00
16249;DHT22;8232;51.678;6.610;2022-10-19T04:45:55;6.10;1.00
16249;DHT22;8232;51.678;6.610;2022-10-19T04:48:22;6.10;1.00
16249;DHT22;8232;51.678;6.610;2022-10-19T04:50:53;6.10;1.00
16249;DHT22;8232;51.678;6.610;2022-10-19T04:53:20;6.10;1.00
16249;DHT22;8232;51.678;6.610;2022-10-19T04:55:48;6.10;1.00
16249;DHT22;8232;51.678;6.610;2022-10-19T04:58:15;6.00;1.00
16249;DHT22;8232;51.678;6.610;2022-10-19T05:00:41;6.00;1.00
16249;DHT22;8232;51.678;6.610;2022-10-19T05:03:08;6.00;1.00
16249;DHT22;8232;51.678;6.610;2022-10-19T05:05:35;5.70;1.00
16249;DHT22;8232;51.678;6.610;2022-10-19T05:08:03;5.80;1.00
16249;DHT22;8232;51.678;6.610;2022-10-19T05:10:30;5.70;1.00
16249;DHT22;8232;51.678;6.610;2022-10-19T05:12:59;5.80;1.00
16249;DHT22;8232;51.678;6.610;2022-10-19T05:15:26;5.80;1.00
16249;DHT22;8232;51.678;6.610;2022-10-19T05:17:53;5.90;1.00
16249;DHT22;8232;51.678;6.610;2022-10-19T05:20:20;5.80;1.00
16249;DHT22;8232;51.678;6.610;2022-10-19T05:22:47;5.60;1.00
16249;DHT22;8232;51.678;6.610;2022-10-19T05:25:15;5.50;1.00
16249;DHT22;8232;51.678;6.610;2022-10-19T05:27:42;5.50;1.00
16249;DHT22;8232;51.678;6.610;2022-10-19T05:30:09;5.50;1.00
16249;DHT22;8232;51.678;6.610;2022-10-19T05:32:38;5.50;1.00
16249;DHT22;8232;51.678;6.610;2022-10-19T05:35:05;5.50;1.00
16249;DHT22;8232;51.678;6.610;2022-10-19T05:37:32;5.50;1.00
16249;DHT22;8232;51.678;6.610;2022-10-19T05:39:59;5.40;1.00
16249;DHT22;8232;51.678;6.610;2022-10-19T05:42:27;5.50;1.00
16249;DHT22;8232;51.678;6.610;2022-10-19T05:44:54;5.50;1.00
16249;DHT22;8232;51.678;6.610;2022-10-19T05:47:21;5.40;1.00
16249;DHT22;8232;51.678;6.610;2022-10-19T05:49:47;5.30;1.00
16249;DHT22;8232;51.678;6.610;2022-10-19T05:52:14;5.50;1.00
16249;DHT22;8232;51.678;6.610;2022-10-19T05:54:42;5.50;1.00
16249;DHT22;8232;51.678;6.610;2022-10-19T05:57:09;5.50;1.00
16249;DHT22;8232;51.678;6.610;2022-10-19T05:59:37;5.50;1.00
16249;DHT22;8232;51.678;6.610;2022-10-19T06:02:03;5.40;1.00
16249;DHT22;8232;51.678;6.610;2022-10-19T06:04:30;5.30;1.00
16249;DHT22;8232;51.678;6.610;2022-10-19T06:06:58;5.50;1.00
16249;DHT22;8232;51.678;6.610;2022-10-19T06:09:26;5.60;1.00
16249;DHT22;8232;51.678;6.610;2022-10-19T06:11:53;5.50;1.00
16249;DHT22;8232;51.678;6.610;2022-10-19T06:14:19;5.50;1.00
16249;DHT22;8232;51.678;6.610;2022-10-19T06:16:48;5.60;1.00
16249;DHT22;8232;51.678;6.610;2022-10-19T06:19:14;5.80;1.00
16249;DHT22;8232;51.678;6.610;2022-10-19T06:21:43;5.70;1.00
16249;DHT22;8232;51.678;6.610;2022-10-19T06:24:10;5.70;1.00
16249;DHT22;8232;51.678;6.610;2022-10-19T06:26:37;5.70;1.00
16249;DHT22;8232;51.678;6.610;2022-10-19T06:29:04;5.90;1.00
16249;DHT22;8232;51.678;6.610;2022-10-19T06:31:33;5.80;1.00
16249;DHT22;8232;51.678;6.610;2022-10-19T06:34:02;5.70;1.00
16249;DHT22;8232;51.678;6.610;2022-10-19T06:36:30;5.80;1.00
16249;DHT22;8232;51.678;6.610;2022-10-19T06:38:57;5.70;1.00
16249;DHT22;8232;51.678;6.610;2022-10-19T06:41:26;5.80;1.00
16249;DHT22;8232;51.678;6.610;2022-10-19T06:43:54;6.10;1.00
16249;DHT22;8232;51.678;6.610;2022-10-19T06:46:22;5.90;1.00
16249;DHT22;8232;51.678;6.610;2022-10-19T06:48:51;6.00;1.00
16249;DHT22;8232;51.678;6.610;2022-10-19T06:51:19;6.00;1.00
16249;DHT22;8232;51.678;6.610;2022-10-19T06:53:46;6.10;1.00
16249;DHT22;8232;51.678;6.610;2022-10-19T06:56:13;6.20;1.00
16249;DHT22;8232;51.678;6.610;2022-10-19T06:58:40;6.00;1.00
16249;DHT22;8232;51.678;6.610;2022-10-19T07:01:08;6.10;1.00
16249;DHT22;8232;51.678;6.610;2022-10-19T07:03:36;6.10;1.00
16249;DHT22;8232;51.678;6.610;2022-10-19T07:06:05;6.20;1.00
16249;DHT22;8232;51.678;6.610;2022-10-19T07:08:34;6.30;1.00
16249;DHT22;8232;51.678;6.610;2022-10-19T07:11:04;6.30;1.00
16249;DHT22;8232;51.678;6.610;2022-10-19T07:13:31;6.50;1.00
16249;DHT22;8232;51.678;6.610;2022-10-19T07:16:00;6.50;1.00
16249;DHT22;8232;51.678;6.610;2022-10-19T07:18:28;6.60;1.00
16249;DHT22;8232;51.678;6.610;2022-10-19T07:20:55;6.70;1.00
16249;DHT22;8232;51.678;6.610;2022-10-19T07:23:23;7.00;1.00
16249;DHT22;8232;51.678;6.610;2022-10-19T07:25:52;7.00;1.00
16249;DHT22;8232;51.678;6.610;2022-10-19T07:28:20;7.00;1.00
16249;DHT22;8232;51.678;6.610;2022-10-19T07:30:47;7.10;1.00
16249;DHT22;8232;51.678;6.610;2022-10-19T07:33:14;7.20;1.00
16249;DHT22;8232;51.678;6.610;2022-10-19T07:35:40;7.40;1.00
16249;DHT22;8232;51.678;6.610;2022-10-19T07:38:07;7.40;1.00
16249;DHT22;8232;51.678;6.610;2022-10-19T07:40:35;7.60;1.00
16249;DHT22;8232;51.678;6.610;2022-10-19T07:43:03;7.60;1.00
16249;DHT22;8232;51.678;6.610;2022-10-19T07:45:31;7.70;1.00
16249;DHT22;8232;51.678;6.610;2022-10-19T07:47:59;7.70;1.00
16249;DHT22;8232;51.678;6.610;2022-10-19T07:50:26;7.70;1.00
16249;DHT22;8232;51.678;6.610;2022-10-19T07:52:53;8.10;1.00
16249;DHT22;8232;51.678;6.610;2022-10-19T07:55:20;8.20;1.00
16249;DHT22;8232;51.678;6.610;2022-10-19T07:57:47;8.30;1.00
16249;DHT22;8232;51.678;6.610;2022-10-19T08:00:15;8.50;99.90
16249;DHT22;8232;51.678;6.610;2022-10-19T08:02:42;8.70;99.90
16249;DHT22;8232;51.678;6.610;2022-10-19T08:05:09;8.80;99.90
16249;DHT22;8232;51.678;6.610;2022-10-19T08:07:36;9.10;99.90
16249;DHT22;8232;51.678;6.610;2022-10-19T08:10:03;9.20;99.90
16249;DHT22;8232;51.678;6.610;2022-10-19T08:12:30;9.40;99.90
16249;DHT22;8232;51.678;6.610;2022-10-19T08:14:57;9.80;99.90
16249;DHT22;8232;51.678;6.610;2022-10-19T08:17:25;10.10;99.90
16249;DHT22;8232;51.678;6.610;2022-10-19T08:19:52;10.80;99.90
16249;DHT22;8232;51.678;6.610;2022-10-19T08:22:19;12.50;7.20
16249;DHT22;8232;51.678;6.610;2022-10-19T08:24:45;14.50;1.00
16249;DHT22;8232;51.678;6.610;2022-10-19T08:27:12;15.00;1.00
16249;DHT22;8232;51.678;6.610;2022-10-19T08:29:40;15.30;1.00
16249;DHT22;8232;51.678;6.610;2022-10-19T08:32:07;15.50;1.00
16249;DHT22;8232;51.678;6.610;2022-10-19T08:34:35;15.20;1.00
16249;DHT22;8232;51.678;6.610;2022-10-19T08:37:02;15.40;1.00
16249;DHT22;8232;51.678;6.610;2022-10-19T08:39:29;15.20;1.00
16249;DHT22;8232;51.678;6.610;2022-10-19T08:42:00;16.40;1.00
16249;DHT22;8232;51.678;6.610;2022-10-19T08:50:31;16.10;1.00
16249;DHT22;8232;51.678;6.610;2022-10-19T08:53:02;15.80;1.00
16249;DHT22;8232;51.678;6.610;2022-10-19T08:55:40;16.40;1.00
16249;DHT22;8232;51.678;6.610;2022-10-19T08:58:19;16.40;1.00
16249;DHT22;8232;51.678;6.610;2022-10-19T09:00:51;16.70;1.00
16249;DHT22;8232;51.678;6.610;2022-10-19T09:03:24;16.70;1.00
16249;DHT22;8232;51.678;6.610;2022-10-19T09:06:01;17.40;1.00
16249;DHT22;8232;51.678;6.610;2022-10-19T09:08:29;17.70;1.00
16249;DHT22;8232;51.678;6.610;2022-10-19T09:10:56;17.50;1.00
16249;DHT22;8232;51.678;6.610;2022-10-19T09:13:32;18.90;1.00
16249;DHT22;8232;51.678;6.610;2022-10-19T09:16:00;19.20;1.00
16249;DHT22;8232;51.678;6.610;2022-10-19T09:18:30;18.40;1.00
16249;DHT22;8232;51.678;6.610;2022-10-19T09:21:02;18.20;1.00
16249;DHT22;8232;51.678;6.610;2022-10-19T09:23:35;18.70;1.00
16249;DHT22;8232;51.678;6.610;2022-10-19T09:26:09;19.50;1.00
16249;DHT22;8232;51.678;6.610;2022-10-19T09:28:44;18.80;1.00
16249;DHT22;8232;51.678;6.610;2022-10-19T09:31:16;18.30;1.00
16249;DHT22;8232;51.678;6.610;2022-10-19T09:33:48;19.30;1.00
16249;DHT22;8232;51.678;6.610;2022-10-19T09:36:18;19.70;1.00
16249;DHT22;8232;51.678;6.610;2022-10-19T09:38:44;18.70;1.00
16249;DHT22;8232;51.678;6.610;2022-10-19T09:41:16;19.00;1.00
16249;DHT22;8232;51.678;6.610;2022-10-19T09:43:53;18.90;1.00
16249;DHT22;8232;51.678;6.610;2022-10-19T09:46:36;19.30;1.00
16249;DHT22;8232;51.678;6.610;2022-10-19T09:49:05;18.70;1.00
16249;DHT22;8232;51.678;6.610;2022-10-19T09:51:45;19.30;1.00
16249;DHT22;8232;51.678;6.610;2022-10-19T09:54:23;19.10;1.00
16249;DHT22;8232;51.678;6.610;2022-10-19T09:56:53;18.90;1.00
16249;DHT22;8232;51.678;6.610;2022-10-19T09:59:21;18.00;1.00
16249;DHT22;8232;51.678;6.610;2022-10-19T10:01:59;17.60;1.00
16249;DHT22;8232;51.678;6.610;2022-10-19T10:04:28;18.70;1.00
16249;DHT22;8232;51.678;6.610;2022-10-19T10:06:57;17.80;1.00
16249;DHT22;8232;51.678;6.610;2022-10-19T10:09:26;18.40;1.00
16249;DHT22;8232;51.678;6.610;2022-10-19T10:11:56;20.10;1.00
16249;DHT22;8232;51.678;6.610;2022-10-19T10:14:27;20.40;1.00
16249;DHT22;8232;51.678;6.610;2022-10-19T10:16:55;21.00;1.00
16249;DHT22;8232;51.678;6.610;2022-10-19T10:19:26;19.20;1.00
16249;DHT22;8232;51.678;6.610;2022-10-19T10:21:55;19.70;1.00
16249;DHT22;8232;51.678;6.610;2022-10-19T10:24:25;19.80;1.00
16249;DHT22;8232;51.678;6.610;2022-10-19T10:26:54;19.10;1.00
16249;DHT22;8232;51.678;6.610;2022-10-19T10:29:22;19.30;1.00
16249;DHT22;8232;51.678;6.610;2022-10-19T10:31:52;19.50;1.00
16249;DHT22;8232;51.678;6.610;2022-10-19T10:34:33;19.20;1.00
16249;DHT22;8232;51.678;6.610;2022-10-19T10:37:00;19.70;1.00
16249;DHT22;8232;51.678;6.610;2022-10-19T10:39:30;19.00;1.00
16249;DHT22;8232;51.678;6.610;2022-10-19T10:42:03;19.30;1.00
16249;DHT22;8232;51.678;6.610;2022-10-19T10:44:32;20.00;1.00
16249;DHT22;8232;51.678;6.610;2022-10-19T10:47:03;19.40;1.00
16249;DHT22;8232;51.678;6.610;2022-10-19T10:49:34;20.70;1.00
16249;DHT22;8232;51.678;6.610;2022-10-19T10:52:05;21.40;1.00
16249;DHT22;8232;51.678;6.610;2022-10-19T10:54:34;20.80;1.00
16249;DHT22;8232;51.678;6.610;2022-10-19T10:57:10;20.10;1.00
16249;DHT22;8232;51.678;6.610;2022-10-19T10:59:50;19.90;1.00
16249;DHT22;8232;51.678;6.610;2022-10-19T11:02:29;19.80;1.00
16249;DHT22;8232;51.678;6.610;2022-10-19T11:05:02;19.10;1.00
16249;DHT22;8232;51.678;6.610;2022-10-19T11:07:32;20.30;1.00
16249;DHT22;8232;51.678;6.610;2022-10-19T11:10:03;20.10;1.00
16249;DHT22;8232;51.678;6.610;2022-10-19T11:12:37;20.30;1.00
16249;DHT22;8232;51.678;6.610;2022-10-19T11:15:14;19.50;1.00
16249;DHT22;8232;51.678;6.610;2022-10-19T11:17:52;19.80;1.00
16249;DHT22;8232;51.678;6.610;2022-10-19T11:20:22;19.30;1.00
16249;DHT22;8232;51.678;6.610;2022-10-19T11:22:54;18.30;1.00
16249;DHT22;8232;51.678;6.610;2022-10-19T11:25:33;18.90;1.00
16249;DHT22;8232;51.678;6.610;2022-10-19T11:28:16;18.60;1.00
16249;DHT22;8232;51.678;6.610;2022-10-19T11:30:52;19.20;1.00
16249;DHT22;8232;51.678;6.610;2022-10-19T11:33:31;18.90;1.00
16249;DHT22;8232;51.678;6.610;2022-10-19T11:36:03;19.30;1.00
16249;DHT22;8232;51.678;6.610;2022-10-19T11:38:40;19.10;1.00
16249;DHT22;8232;51.678;6.610;2022-10-19T11:41:18;18.50;1.00
16249;DHT22;8232;51.678;6.610;2022-10-19T11:44:00;18.60;1.00
16249;DHT22;8232;51.678;6.610;2022-10-19T11:46:33;19.00;1.00
16249;DHT22;8232;51.678;6.610;2022-10-19T11:49:13;19.10;1.00
16249;DHT22;8232;51.678;6.610;2022-10-19T11:51:46;19.40;1.00
16249;DHT22;8232;51.678;6.610;2022-10-19T11:54:29;18.90;1.00
16249;DHT22;8232;51.678;6.610;2022-10-19T11:57:04;19.50;1.00
16249;DHT22;8232;51.678;6.610;2022-10-19T11:59:43;20.60;1.00
16249;DHT22;8232;51.678;6.610;2022-10-19T12:02:36;20.20;1.00
16249;DHT22;8232;51.678;6.610;2022-10-19T12:05:10;20.50;1.00
16249;DHT22;8232;51.678;6.610;2022-10-19T12:07:58;19.90;1.00
16249;DHT22;8232;51.678;6.610;2022-10-19T12:10:38;18.20;1.00
16249;DHT22;8232;51.678;6.610;2022-10-19T12:13:13;17.10;1.00
16249;DHT22;8232;51.678;6.610;2022-10-19T12:15:42;17.00;1.00
16249;DHT22;8232;51.678;6.610;2022-10-19T12:18:14;16.50;1.00
16249;DHT22;8232;51.678;6.610;2022-10-19T12:20:43;16.20;1.00
16249;DHT22;8232;51.678;6.610;2022-10-19T12:23:22;15.80;1.00
16249;DHT22;8232;51.678;6.610;2022-10-19T12:25:51;15.70;1.00
16249;DHT22;8232;51.678;6.610;2022-10-19T12:28:23;15.60;1.00
16249;DHT22;8232;51.678;6.610;2022-10-19T12:30:52;15.20;1.00
16249;DHT22;8232;51.678;6.610;2022-10-19T12:33:22;15.20;1.00
16249;DHT22;8232;51.678;6.610;2022-10-19T12:35:56;15.20;1.00
16249;DHT22;8232;51.678;6.610;2022-10-19T12:38:31;15.10;1.00
16249;DHT22;8232;51.678;6.610;2022-10-19T12:41:03;15.30;1.00
16249;DHT22;8232;51.678;6.610;2022-10-19T12:43:39;15.00;1.00
16249;DHT22;8232;51.678;6.610;2022-10-19T12:46:15;14.90;1.00
16249;DHT22;8232;51.678;6.610;2022-10-19T12:51:58;15.30;1.00
16249;DHT22;8232;51.678;6.610;2022-10-19T12:54:27;15.10;1.00
16249;DHT22;8232;51.678;6.610;2022-10-19T12:56:56;15.20;1.00
16249;DHT22;8232;51.678;6.610;2022-10-19T12:59:28;15.10;1.00
16249;DHT22;8232;51.678;6.610;2022-10-19T13:01:56;15.00;1.00
16249;DHT22;8232;51.678;6.610;2022-10-19T13:04:25;15.10;1.00
16249;DHT22;8232;51.678;6.610;2022-10-19T13:06:59;15.10;1.00
16249;DHT22;8232;51.678;6.610;2022-10-19T13:09:29;15.10;1.00
16249;DHT22;8232;51.678;6.610;2022-10-19T13:12:25;15.10;1.00
16249;DHT22;8232;51.678;6.610;2022-10-19T13:14:55;15.10;1.00
16249;DHT22;8232;51.678;6.610;2022-10-19T13:17:39;15.10;1.00
16249;DHT22;8232;51.678;6.610;2022-10-19T13:20:40;15.30;1.00
16249;DHT22;8232;51.678;6.610;2022-10-19T13:23:38;15.10;1.00
16249;DHT22;8232;51.678;6.610;2022-10-19T13:26:36;15.10;1.00
16249;DHT22;8232;51.678;6.610;2022-10-19T13:29:23;15.20;1.00
16249;DHT22;8232;51.678;6.610;2022-10-19T13:31:52;15.10;1.00
16249;DHT22;8232;51.678;6.610;2022-10-19T13:34:19;15.10;1.00
16249;DHT22;8232;51.678;6.610;2022-10-19T13:36:58;15.10;1.00
16249;DHT22;8232;51.678;6.610;2022-10-19T13:39:26;15.00;1.00
16249;DHT22;8232;51.678;6.610;2022-10-19T13:41:54;15.00;1.00
16249;DHT22;8232;51.678;6.610;2022-10-19T13:44:24;14.90;1.00
16249;DHT22;8232;51.678;6.610;2022-10-19T13:47:25;14.90;1.00
16249;DHT22;8232;51.678;6.610;2022-10-19T13:50:16;14.80;1.00
16249;DHT22;8232;51.678;6.610;2022-10-19T13:53:10;14.80;1.00
16249;DHT22;8232;51.678;6.610;2022-10-19T13:59:02;14.80;1.00
16249;DHT22;8232;51.678;6.610;2022-10-19T14:01:41;14.80;1.00
16249;DHT22;8232;51.678;6.610;2022-10-19T14:04:20;14.80;1.00
16249;DHT22;8232;51.678;6.610;2022-10-19T14:06:51;14.80;1.00
16249;DHT22;8232;51.678;6.610;2022-10-19T14:09:41;14.80;1.00
16249;DHT22;8232;51.678;6.610;2022-10-19T14:12:17;14.70;1.00
16249;DHT22;8232;51.678;6.610;2022-10-19T14:14:46;14.80;1.00
16249;DHT22;8232;51.678;6.610;2022-10-19T14:17:16;14.80;1.00
16249;DHT22;8232;51.678;6.610;2022-10-19T14:19:47;14.70;1.00
16249;DHT22;8232;51.678;6.610;2022-10-19T14:22:21;14.70;1.00
16249;DHT22;8232;51.678;6.610;2022-10-19T14:24:48;14.60;1.00
16249;DHT22;8232;51.678;6.610;2022-10-19T14:27:18;14.60;1.00
16249;DHT22;8232;51.678;6.610;2022-10-19T14:29:49;14.60;1.00
16249;DHT22;8232;51.678;6.610;2022-10-19T14:32:16;14.60;1.00
16249;DHT22;8232;51.678;6.610;2022-10-19T14:34:46;14.50;1.00
16249;DHT22;8232;51.678;6.610;2022-10-19T14:37:16;14.50;1.00
16249;DHT22;8232;51.678;6.610;2022-10-19T14:39:56;14.40;1.00
16249;DHT22;8232;51.678;6.610;2022-10-19T14:42:23;14.40;1.00
16249;DHT22;8232;51.678;6.610;2022-10-19T14:44:50;14.40;1.00
16249;DHT22;8232;51.678;6.610;2022-10-19T14:47:21;14.30;1.00
16249;DHT22;8232;51.678;6.610;2022-10-19T14:49:50;14.30;1.00
16249;DHT22;8232;51.678;6.610;2022-10-19T14:52:19;14.30;1.00
16249;DHT22;8232;51.678;6.610;2022-10-19T14:54:51;14.20;1.00
16249;DHT22;8232;51.678;6.610;2022-10-19T14:57:24;14.20;1.00
16249;DHT22;8232;51.678;6.610;2022-10-19T14:59:55;14.00;1.00
16249;DHT22;8232;51.678;6.610;2022-10-19T15:02:25;14.00;1.00
16249;DHT22;8232;51.678;6.610;2022-10-19T15:04:57;13.90;1.00
16249;DHT22;8232;51.678;6.610;2022-10-19T15:07:28;13.90;1.00
16249;DHT22;8232;51.678;6.610;2022-10-19T15:10:01;13.80;1.00
16249;DHT22;8232;51.678;6.610;2022-10-19T15:12:33;13.90;1.00
16249;DHT22;8232;51.678;6.610;2022-10-19T15:15:06;13.90;1.00
16249;DHT22;8232;51.678;6.610;2022-10-19T15:17:33;13.80;1.00
16249;DHT22;8232;51.678;6.610;2022-10-19T15:20:22;13.90;1.00
16249;DHT22;8232;51.678;6.610;2022-10-19T15:22:49;13.80;1.00
16249;DHT22;8232;51.678;6.610;2022-10-19T15:25:25;13.70;1.00
16249;DHT22;8232;51.678;6.610;2022-10-19T15:27:52;13.80;1.00
16249;DHT22;8232;51.678;6.610;2022-10-19T15:30:25;13.70;1.00
16249;DHT22;8232;51.678;6.610;2022-10-19T15:33:06;13.80;1.00
16249;DHT22;8232;51.678;6.610;2022-10-19T15:35:36;13.70;1.00
16249;DHT22;8232;51.678;6.610;2022-10-19T15:38:06;13.70;1.00
16249;DHT22;8232;51.678;6.610;2022-10-19T15:40:36;13.60;1.00
16249;DHT22;8232;51.678;6.610;2022-10-19T15:43:34;13.60;1.00
16249;DHT22;8232;51.678;6.610;2022-10-19T15:46:03;13.60;1.00
16249;DHT22;8232;51.678;6.610;2022-10-19T15:48:43;13.40;1.00
16249;DHT22;8232;51.678;6.610;2022-10-19T15:51:31;13.40;1.00
16249;DHT22;8232;51.678;6.610;2022-10-19T15:54:00;13.40;1.00
16249;DHT22;8232;51.678;6.610;2022-10-19T15:56:29;13.30;1.00
16249;DHT22;8232;51.678;6.610;2022-10-19T15:58:57;13.30;1.00
16249;DHT22;8232;51.678;6.610;2022-10-19T16:01:27;13.10;1.00
16249;DHT22;8232;51.678;6.610;2022-10-19T16:03:54;13.00;1.00
16249;DHT22;8232;51.678;6.610;2022-10-19T16:06:23;13.10;1.00
16249;DHT22;8232;51.678;6.610;2022-10-19T16:08:51;13.00;1.00
16249;DHT22;8232;51.678;6.610;2022-10-19T16:11:21;12.90;1.00
16249;DHT22;8232;51.678;6.610;2022-10-19T16:13:49;12.90;1.00
16249;DHT22;8232;51.678;6.610;2022-10-19T16:16:21;12.80;1.00
16249;DHT22;8232;51.678;6.610;2022-10-19T16:18:48;12.80;1.00
16249;DHT22;8232;51.678;6.610;2022-10-19T16:21:16;12.70;1.00
16249;DHT22;8232;51.678;6.610;2022-10-19T16:23:43;12.80;1.00
16249;DHT22;8232;51.678;6.610;2022-10-19T16:26:13;12.60;1.00
16249;DHT22;8232;51.678;6.610;2022-10-19T16:28:41;12.60;1.00
16249;DHT22;8232;51.678;6.610;2022-10-19T16:31:08;12.50;1.00
16249;DHT22;8232;51.678;6.610;2022-10-19T16:33:34;12.40;1.00
16249;DHT22;8232;51.678;6.610;2022-10-19T16:36:03;12.30;1.00
16249;DHT22;8232;51.678;6.610;2022-10-19T16:38:30;12.30;1.00
16249;DHT22;8232;51.678;6.610;2022-10-19T16:40:59;12.20;1.00
16249;DHT22;8232;51.678;6.610;2022-10-19T16:43:28;12.20;1.00
16249;DHT22;8232;51.678;6.610;2022-10-19T16:45:55;12.10;1.00
16249;DHT22;8232;51.678;6.610;2022-10-19T16:48:22;12.10;1.00